Timeline UpdatesTrip UpdatesNews PostsPvt Posts♥♥Travel TipsAdmin PostsConv PostsFollowed PostsChat RequestsBlog PostsPNR Posts

Disclaimer
Search
 
 
Sat Dec 20, 2014 02:28:55 ISTHomeTrainsΣChainsAtlasPNRForumGalleryNewsFAQTripsMembersLoginFeedback
No Recent News for this Train
Other Trains in the News **new
Latest...
Short Termination at Azimganj City on 15th , 17th-25th September 2014 #1198366-1
Thu Sep 11, 2014 (09:14PM)
⇐ Return Journey: Train# 73152

73151/Sealdah-Jangipur Road DEMU

Time-Table HAS CHANGED.
Sep 11 2014 (9:14PM)
Change Departure Station:
Change Arrival Station:
Post a Train Travel TipPost a Train Travel Tip **new
Post a Comment/Question/Picture/VideoPost a Comment/Question/Picture/Video
Inaugural Run
Tue Feb 21, 2012
Pantry/Catering
✕ NO Pantry Car
✕ NO Catering
RSA - Rake Sharing
Rake/Coach Composition
Loco
News    PNR    Forum    Time-Table    Availability    Fare Chart    Map    Arr/Dep History    Trips    Gallery    ΣChains    X/O    Timeline    
Travel Time: 6h 29m    43 halts    Distance: 239 km    Avg Speed: 36 km/hr
Type: DEMU
Zone: ER/Eastern
Departs @ 05:35 (Avg 1m late)
Platform# ???
 MTWTFS
Kolkata Sealdah/SDAH 
Arrives @ 12:04
Platform# ???
 MTWTFS
Noapara Mahisha/NWMS 

43 halts. 72 intermediate Stations between Kolkata Sealdah and Noapara Mahisha

Show ALL intermediate Stations  Show Old Time-Table

#TrkCodeStation NameX/OArrivesAvgDepartsAvgHaltPFDay#KmSpeedElevZoneAddress
1/==/SDAHKolkata Sealdah (20)»  -05:35+1--10.0368mERPh : 033-23503535 (For North: APC Roy Road) Kolkata 700014, West Bengal
2/==/DDJDum Dum Junction (5)  05:47 05:46+005:48 05:47+01m316.56710mERKolkata - 700028, West Bengal
3/==/BPBarrackpore (5)X  06:02 06:01+406:03 06:02+41m--122.23812mERDist - 24 paraganas (N), West Bengal
4/==/NHNaihati Junction (5)X  06:27 06:26+206:32 06:31+15m2137.61915mERdist - North 24 paraganas - 743165, West Bengal
5/==/BDCBandel Junction (7)  06:58 06:57+607:00 06:59+82m4146.05414mERdist - HOOGHLY, West Bengal
6/==/BSAEBansh Baria  07:05 07:04+1507:06 07:05+151m--150.47413mERBansberia, West Bengal
7/==/TBAETribeni  07:09 07:08+1707:10 07:09+171m--154.110016mERTribeni, West Bengal
8/==/KJUKuntighat  07:13 07:11-07:14 07:12-1m--157.59817mERKuntighat Railway Station, West Bengal
9/==/DMLEDumurdaha  07:16 07:14-07:17 07:15-1m--160.76015mERDumurdahadham, West Bengal
10/==/KMAEKhamargachhi  07:19 07:17+2007:20 07:18+201m--162.710414mERKhamargachi, West Bengal
11/==/JITJirat (3)  07:23 07:21+2207:24 07:22+221m--167.96615mERdist - hooghly, West Bengal
12/==/BGAEBalagarh  07:27 07:25-07:28 07:26-1m--171.28413mERBalagarh, West Bengal
13/==/SOAESomra Bazar (2)  07:30 07:28-07:31 07:29-1m--174.014513mERState Highway 6, West Bengal
14/==/BHLABehula  07:33 07:31-07:34 07:32-1m--178.84516mERDist - Hooghly, West Bengal
15/==/GPAEGuptipara  07:42 07:35+2607:46 07:36+264 1m--181.18614mERGuptipara Railway Station, West Bengal
16/==/ABKAAmbika Kalna (4)  07:52 07:41+2907:53 07:42+291m3188.28012mERKalna, West Bengal
17/==/BGRABaghnapara (2)  08:01 07:45-08:02 07:46-1m--192.26916mERKalna-Memari Rd, West Bengal
18/==%DTAEDhatrigram (4)  08:10 07:50+3108:11 07:51+331m--196.82016mERDhatrigram, West Bengal
19%=-/SMAESamudra Garh  08:22 08:11+2408:23 08:12+251m--1103.57416mERDist - Bardhaman, West Bengal
20/-=%KLNTKalinagar (1)  08:26 08:15+2808:27 08:16+281m11107.2529mERDist - Nadia, West Bengal
21%==%NDAENabadwip Dham (3)  08:31 08:21+2708:32 08:23+261 2m--1111.57915mERDist - Nadia, West Bengal
22%==%BFZBhandartikuri  08:37 08:27+2908:38 08:28+291m--1116.87121mERDist - Bardhaman, West Bengal
23%==%PSAEPurbasthali (2)  08:40 08:30+3008:41 08:31+301m--1119.29219mERDist - Bardhaman, West Bengal
24%==%LKXLakshmipur (2)  08:45 08:35+3408:46 08:36+361m--1125.38214mERDist - burdhaman, West Bengal
25%==%BQYBelerhat  08:48 08:38-08:49 08:39-1m--1128.07519mERJajneswarpur, West Bengal
26%==%PTAEPatuli (2)  09:00 08:43+3809:01 08:44+391m--1133.19718mERDist - bardhaman, West Bengal
27%==%AGAEAgradwip (2)  09:10 08:47+4209:11 08:48+421m--1137.96118mERDist - Bardhaman, West Bengal
28%==/DHAEDainhat (4)  09:17 08:54+4609:18 08:55+461m31144.01219mERDaihaat Rd, West Bengal
29!-=/KWAEKatwa Junction (5)  09:47 09:30+2109:49 09:35+252 5m31150.95221mERDist - Bardhaman, West Bengal
30%--%GGLEGangatikuri (2)  10:08 09:47+3110:09 09:48+311m--1161.22319mERState Highway 6, West Bengal
31%--%JHBNJhamatpur Baharan  10:13 09:56-10:14 09:57-1m--1164.34526mERGoai, West Bengal
32%--%SALESalar (2)  10:20 10:02+3110:21 10:03+341m--1168.14526mERSalar, West Bengal
33%--%MHTRMalihati Talibpur RoadX  10:25 10:06-10:26 10:07-1m--1170.34223mERMalihati Talibpur Road, West Bengal
34%--%TYAETenya (1)  10:32 10:13+3510:33 10:14+351m11174.64619mERTenya, West Bengal
35%--%BZLEBazarsau (2)  10:43 10:23+3810:44 10:24+381m--1181.56521mERBazarsau, West Bengal
36%--%CWLEChowrigacha (2)  10:52 10:31+4210:53 10:32+421m--1189.13019mERChowrigacha, West Bengal
37%--%KTLRKanthaliya Road  11:06 10:37-11:07 10:38-1m--1191.66919mERKhagraghat - Chowrigacha, West Bengal
38%--%KNSNKarna Subarna (2)X  11:22 10:44+4111:23 10:45+451m--1198.45028mERKhagraghat - Chowrigacha, West Bengal
39%--%KGLEKhagraghat Road (2)X  11:32 10:58+3911:33 10:59+391m--1209.32222mERKhagraghat, West Bengal
40%--%NLSFNiyalish Para (1)  11:36 11:12-11:37 11:13-1m11214.03321mERNational Highway 34, West Bengal
41%--%LCAELalbagh Court Road (2)  11:43 11:19+3611:44 11:20+361m--1217.22023mERLalbagh Court Road, West Bengal
42%--%AZAzimganj Junction (4)X  12:05 11:40+2412:10 11:45+245m--1223.92725mERPolice Station Rd, West Bengal
43%--%ACLEAzimganj City (1)  12:13 11:48-12:14 11:49-1m11225.36525mERPolice Station Rd, West Bengal
44%--%MPLRMahipal Road (3)  12:21 11:57+2812:22 11:58+291m--1234.05529mERLalgola, West Bengal
45%--%NWMSNoapara Mahisha (2)•  12:32 12:04-12:33 12:05-1m--1239.55933mERSagardighi Railway Station, West Bengal
46%--%MGLEManigram (5)X  12:37 12:10+3512:38 12:11+291m--1244.45837mERDist - Murshidabad, West Bengal
47%--%GALEGankar (2)  12:45 12:19+3212:46 12:20+321m--1252.12831mERGankar, West Bengal
48%--%JRLEJangipur Road (2)  12:56 12:35+15---1259.0-30mERRaghunathganj, West Bengal
Scroll to Top
Scroll to Bottom


Go to Mobile site